Time;durP1;ratioP1;P1;durP2;ratioP2;P2;SDS_P1;SDS_P2;PMS_P1;PMS_P2;Temp;Humidity;BMP_temperature;BMP_pressure;BME280_temperature;BME280_humidity;BME280_pressure;Samples;Min_cycle;Max_cycle;Signal;HPM_P1;HPM_P2
2021/04/12 00:01:07;;;;;;;10.60;3.88;;;4.10;99.90;;;;;;4946458;28;20086;-90
2021/04/12 00:03:35;;;;;;;12.02;4.45;;;4.10;99.90;;;;;;4944863;28;20098;-89
2021/04/12 00:06:05;;;;;;;7.07;3.88;;;4.00;99.90;;;;;;4947667;28;20115;-91
2021/04/12 00:08:35;;;;;;;6.70;3.78;;;4.00;99.90;;;;;;4936781;28;20078;-88
2021/04/12 00:11:01;;;;;;;8.15;4.20;;;4.00;99.90;;;;;;4946394;28;20073;-90
2021/04/12 00:13:32;;;;;;;7.30;3.80;;;3.90;99.90;;;;;;4945320;28;20090;-90
2021/04/12 00:16:00;;;;;;;10.15;3.70;;;3.80;99.90;;;;;;4946690;28;20449;-89
2021/04/12 00:18:27;;;;;;;9.05;3.83;;;3.90;99.90;;;;;;4944723;28;20085;-90
2021/04/12 00:20:55;;;;;;;6.30;3.30;;;3.90;99.90;;;;;;4914751;28;20094;-87
2021/04/12 00:23:27;;;;;;;8.25;3.88;;;3.90;99.90;;;;;;4937994;28;20453;-89
2021/04/12 00:25:55;;;;;;;7.45;3.60;;;3.80;99.90;;;;;;4947961;28;20093;-90
2021/04/12 00:28:22;;;;;;;6.57;3.30;;;3.90;99.90;;;;;;4945574;28;21017;-90
2021/04/12 00:30:52;;;;;;;7.07;4.00;;;3.90;99.90;;;;;;4947300;28;20097;-90
2021/04/12 00:33:21;;;;;;;9.25;4.13;;;3.90;99.90;;;;;;4946653;28;20081;-89
2021/04/12 00:35:46;;;;;;;7.65;3.92;;;;;;;;;;4947059;28;20086;-91
2021/04/12 00:38:14;;;;;;;6.55;3.72;;;3.80;99.90;;;;;;4946992;28;20078;-91
2021/04/12 00:40:40;;;;;;;13.43;4.20;;;;;;;;;;4947390;28;20158;-89
2021/04/12 00:43:13;;;;;;;6.18;3.22;;;3.90;99.90;;;;;;4946918;28;20095;-89
2021/04/12 00:45:56;;;;;;;7.15;3.58;;;3.90;99.90;;;;;;4945943;28;20412;-90
2021/04/12 00:48:58;;;;;;;5.32;3.20;;;3.80;99.90;;;;;;4946925;28;20082;-89
2021/04/12 00:51:31;;;;;;;8.32;3.50;;;3.90;99.90;;;;;;4877010;28;20097;-90
2021/04/12 00:54:09;;;;;;;8.50;4.03;;;3.90;99.90;;;;;;4944555;28;20448;-90
2021/04/12 00:56:35;;;;;;;7.93;3.50;;;3.80;99.90;;;;;;4945873;28;20086;-90
2021/04/12 00:59:03;;;;;;;6.88;3.13;;;3.80;99.90;;;;;;4925982;28;20089;-88
2021/04/12 01:01:46;;;;;;;4.93;2.58;;;3.80;99.90;;;;;;4936347;28;20490;-89
2021/04/12 01:04:27;;;;;;;4.55;2.38;;;3.80;99.90;;;;;;4946175;28;20430;-90
2021/04/12 01:07:32;;;;;;;6.88;2.63;;;3.80;99.90;;;;;;4939307;28;20089;-91
2021/04/12 01:10:22;;;;;;;4.60;2.65;;;3.80;99.90;;;;;;4945597;28;20082;-90
2021/04/12 01:13:18;;;;;;;7.93;2.88;;;3.80;99.90;;;;;;4945413;28;20144;-91
2021/04/12 01:16:03;;;;;;;4.50;2.47;;;3.80;99.90;;;;;;4941776;28;20093;-87
2021/04/12 01:18:44;;;;;;;3.88;2.50;;;4.90;99.90;;;;;;4946880;28;20102;-91
2021/04/12 01:21:48;;;;;;;6.35;2.85;;;3.90;99.90;;;;;;4944939;28;20524;-91
2021/04/12 01:24:33;;;;;;;5.88;2.40;;;3.80;99.90;;;;;;4942595;27;20089;-89
2021/04/12 01:27:38;;;;;;;5.80;2.40;;;3.90;99.90;;;;;;4945814;28;20086;-89
2021/04/12 01:30:33;;;;;;;7.13;2.45;;;3.80;99.90;;;;;;4944203;28;20528;-88
2021/04/12 01:33:25;;;;;;;4.40;1.80;;;3.80;99.90;;;;;;4902448;28;20093;-89
2021/04/12 01:36:35;;;;;;;7.60;2.60;;;3.80;99.90;;;;;;4926688;28;20090;-88
2021/04/12 01:39:09;;;;;;;7.22;2.05;;;3.80;99.90;;;;;;4946114;28;20097;-89
2021/04/12 01:41:39;;;;;;;3.85;2.05;;;3.80;99.90;;;;;;4945147;28;20086;-89
2021/04/12 01:44:30;;;;;;;4.38;2.25;;;3.80;99.90;;;;;;4944871;28;20127;-90
2021/04/12 01:47:04;;;;;;;6.53;2.75;;;3.80;99.90;;;;;;4942899;28;20123;-89
2021/04/12 01:49:42;;;;;;;6.03;2.05;;;3.80;99.90;;;;;;4943067;28;20089;-88
2021/04/12 01:52:23;;;;;;;3.88;2.17;;;3.80;99.90;;;;;;4945000;28;20142;-88
2021/04/12 01:55:02;;;;;;;6.13;2.10;;;3.80;99.90;;;;;;4943670;28;20077;-91
2021/04/12 01:57:43;;;;;;;3.40;2.20;;;3.80;99.90;;;;;;4942262;28;20976;-87
2021/04/12 02:00:33;;;;;;;4.82;2.33;;;3.80;99.90;;;;;;4943258;28;20085;-89
2021/04/12 02:03:02;;;;;;;3.45;2.10;;;3.80;99.90;;;;;;4943074;28;20650;-89
2021/04/12 02:05:52;;;;;;;5.30;2.33;;;3.80;99.90;;;;;;4942569;28;20086;-91
2021/04/12 02:08:30;;;;;;;3.90;2.55;;;3.80;99.90;;;;;;4937126;28;20096;-91
2021/04/12 02:11:08;;;;;;;2.65;1.92;;;3.80;99.90;;;;;;4944859;28;20516;-91
2021/04/12 02:13:58;;;;;;;6.53;2.25;;;3.80;99.90;;;;;;4944225;28;20085;-92
2021/04/12 02:16:33;;;;;;;7.28;2.10;;;3.80;99.90;;;;;;4934427;28;20084;-90
2021/04/12 02:19:20;;;;;;;6.03;2.20;;;3.80;99.90;;;;;;4944775;28;20508;-90
2021/04/12 02:22:05;;;;;;;5.13;2.22;;;3.80;99.90;;;;;;4944474;28;20081;-89
2021/04/12 02:24:34;;;;;;;3.08;1.90;;;3.80;99.90;;;;;;4945072;28;20104;-91
2021/04/12 02:27:06;;;;;;;2.97;1.65;;;3.80;99.90;;;;;;4943517;28;20086;-91
2021/04/12 02:29:39;;;;;;;4.20;2.00;;;3.80;99.90;;;;;;4944768;28;20551;-91
2021/04/12 02:32:22;;;;;;;5.93;1.52;;;3.70;99.90;;;;;;4917499;28;20093;-89
2021/04/12 02:34:48;;;;;;;3.17;1.60;;;3.70;99.90;;;;;;4932436;28;20906;-90
2021/04/12 02:37:41;;;;;;;1.88;1.40;;;3.70;99.90;;;;;;4933934;28;20090;-88
2021/04/12 02:40:49;;;;;;;2.50;1.60;;;3.70;99.90;;;;;;4930953;28;20101;-89
2021/04/12 02:43:21;;;;;;;2.25;1.38;;;3.60;99.90;;;;;;4927978;28;20097;-91
2021/04/12 02:46:10;;;;;;;6.65;1.45;;;3.70;99.90;;;;;;4920762;28;20094;-91
2021/04/12 02:48:40;;;;;;;3.53;1.27;;;3.60;99.90;;;;;;4929194;28;20078;-91
2021/04/12 02:51:31;;;;;;;3.83;1.55;;;3.60;99.90;;;;;;4927627;28;20100;-90
2021/04/12 02:54:23;;;;;;;3.95;1.65;;;3.70;99.90;;;;;;4904660;28;20105;-89
2021/04/12 02:57:21;;;;;;;3.13;1.30;;;3.60;99.90;;;;;;4938957;28;20991;-88
2021/04/12 03:00:16;;;;;;;3.75;2.00;;;3.60;99.90;;;;;;4943844;28;20104;-90
2021/04/12 03:03:08;;;;;;;2.72;1.25;;;3.60;99.90;;;;;;4942510;28;20480;-90
2021/04/12 03:06:12;;;;;;;3.15;1.17;;;3.50;99.90;;;;;;4922438;28;20136;-86
2021/04/12 03:09:11;;;;;;;6.00;1.58;;;3.50;99.90;;;;;;4923918;28;20090;-90
2021/04/12 03:12:00;;;;;;;2.80;1.60;;;3.50;99.90;;;;;;4911060;28;20329;-90
2021/04/12 03:14:46;;;;;;;3.20;1.50;;;3.50;99.90;;;;;;4917612;28;20087;-90
2021/04/12 03:17:36;;;;;;;4.72;1.65;;;3.40;99.90;;;;;;4912271;28;20086;-86
2021/04/12 03:20:24;;;;;;;4.10;1.65;;;3.40;99.90;;;;;;4916680;28;20094;-91
2021/04/12 03:23:10;;;;;;;3.92;1.88;;;3.20;99.90;;;;;;4926943;28;20081;-88
2021/04/12 03:26:02;;;;;;;5.55;1.50;;;3.20;99.90;;;;;;4928002;28;20094;-90
2021/04/12 03:28:37;;;;;;;2.53;1.30;;;3.20;99.90;;;;;;4925741;28;20506;-91
2021/04/12 03:31:22;;;;;;;3.20;1.60;;;3.20;99.90;;;;;;4916524;28;20083;-87
2021/04/12 03:33:59;;;;;;;5.15;1.63;;;3.30;99.90;;;;;;4909218;28;20113;-89
2021/04/12 03:36:30;;;;;;;4.60;1.83;;;3.30;99.90;;;;;;4913474;28;20098;-91
2021/04/12 03:39:04;;;;;;;2.05;1.38;;;3.30;99.90;;;;;;4911558;28;20136;-90
2021/04/12 03:41:59;;;;;;;6.47;1.80;;;3.30;99.90;;;;;;4912430;28;20644;-88
2021/04/12 03:44:37;;;;;;;3.08;1.85;;;3.30;99.90;;;;;;4927571;28;20521;-89
2021/04/12 03:47:20;;;;;;;3.20;1.67;;;3.20;99.90;;;;;;4927010;28;21017;-88
2021/04/12 03:50:11;;;;;;;6.50;1.77;;;3.20;99.90;;;;;;4927644;28;20085;-91
2021/04/12 03:52:53;;;;;;;5.57;1.75;;;3.10;99.90;;;;;;4924934;28;20139;-88
2021/04/12 03:55:44;;;;;;;3.35;1.50;;;3.00;99.90;;;;;;4924285;28;20574;-89
2021/04/12 03:58:22;;;;;;;2.65;1.38;;;3.00;99.90;;;;;;4926764;28;20086;-92
2021/04/12 04:01:04;;;;;;;4.63;1.75;;;2.90;99.90;;;;;;4927865;28;20082;-91
2021/04/12 04:03:43;;;;;;;4.68;1.88;;;3.00;99.90;;;;;;4916657;28;20090;-91
2021/04/12 04:06:41;;;;;;;4.47;1.90;;;3.10;99.90;;;;;;4926976;28;20881;-90
2021/04/12 04:09:19;;;;;;;6.32;1.80;;;3.10;99.90;;;;;;4926759;28;20087;-85
2021/04/12 04:11:59;;;;;;;4.07;2.10;;;3.20;99.90;;;;;;4926890;28;20086;-91
2021/04/12 04:14:47;;;;;;;7.15;1.75;;;3.10;99.90;;;;;;4927230;28;20101;-91
2021/04/12 04:17:43;;;;;;;11.13;2.30;;;3.20;99.90;;;;;;4923860;28;20576;-91
2021/04/12 04:20:27;;;;;;;5.65;2.15;;;3.20;99.90;;;;;;4882383;28;20090;-91
2021/04/12 04:23:14;;;;;;;4.30;1.83;;;3.20;99.90;;;;;;4927066;28;20090;-91
2021/04/12 04:26:18;;;;;;;9.35;2.00;;;3.20;99.90;;;;;;4926351;28;20139;-89
2021/04/12 04:29:07;;;;;;;3.97;1.40;;;3.20;99.90;;;;;;4912784;28;20086;-87
2021/04/12 04:32:10;;;;;;;3.78;1.80;;;3.20;99.90;;;;;;4925721;28;20082;-89
2021/04/12 04:34:34;;;;;;;3.60;1.48;;;3.20;99.90;;;;;;4915938;28;20095;-91
2021/04/12 04:37:35;;;;;;;2.20;1.63;;;3.20;99.90;;;;;;4927003;28;20495;-90
2021/04/12 04:40:25;;;;;;;4.85;1.08;;;3.30;99.90;;;;;;4926246;28;20083;-92
2021/04/12 04:43:14;;;;;;;2.45;1.42;;;3.30;99.90;;;;;;4903770;28;20082;-90
2021/04/12 04:46:10;;;;;;;2.92;1.23;;;3.30;99.90;;;;;;4916649;28;20136;-91
2021/04/12 04:49:05;;;;;;;4.22;1.40;;;3.30;99.90;;;;;;4910230;28;20509;-92
2021/04/12 04:52:06;;;;;;;2.63;1.55;;;3.30;99.90;;;;;;4910491;28;20098;-90
2021/04/12 04:54:48;;;;;;;4.75;1.23;;;3.30;99.90;;;;;;4913643;28;20086;-88
2021/04/12 04:57:19;;;;;;;2.13;1.05;;;3.40;99.90;;;;;;4893733;28;20098;-90
2021/04/12 05:00:05;;;;;;;4.43;1.33;;;3.30;99.90;;;;;;4914572;28;20467;-91
2021/04/12 05:02:47;;;;;;;2.83;1.50;;;3.30;99.90;;;;;;4913813;28;20086;-91
2021/04/12 05:05:25;;;;;;;3.25;1.65;;;3.40;99.90;;;;;;4927037;28;20563;-88
2021/04/12 05:08:17;;;;;;;5.38;1.83;;;3.40;99.90;;;;;;4925409;28;20086;-90
2021/04/12 05:11:24;;;;;;;2.58;1.15;;;3.40;99.90;;;;;;4917488;28;20105;-91
2021/04/12 05:14:13;;;;;;;2.42;1.40;;;3.30;99.90;;;;;;4924109;28;20086;-90
2021/04/12 05:16:50;;;;;;;6.60;1.30;;;3.40;99.90;;;;;;4925819;28;20082;-89
2021/04/12 05:19:42;;;;;;;2.85;1.50;;;3.40;99.90;;;;;;4913353;28;20089;-88
2021/04/12 05:22:50;;;;;;;5.28;1.40;;;3.50;99.90;;;;;;4912803;28;20089;-91
2021/04/12 05:25:37;;;;;;;;;;;3.50;99.90;;;;;;4850640;28;20091;-90
2021/04/12 05:28:21;;;;;;;2.35;1.27;;;3.50;99.90;;;;;;4924342;28;19970;-90
2021/04/12 05:31:00;;;;;;;3.00;1.20;;;3.60;99.90;;;;;;4925105;28;20079;-90
2021/04/12 05:33:48;;;;;;;4.75;1.55;;;3.60;99.90;;;;;;4924358;28;20139;-90
2021/04/12 05:36:34;;;;;;;2.05;1.23;;;3.70;99.90;;;;;;4923367;28;20082;-89
2021/04/12 05:39:27;;;;;;;;;;;3.80;99.90;;;;;;4922722;28;20095;-90
2021/04/12 05:42:21;;;;;;;2.40;1.20;;;3.90;99.90;;;;;;4828643;28;20355;-91
2021/04/12 05:45:07;;;;;;;2.85;1.23;;;3.90;99.90;;;;;;4918723;28;20082;-91
2021/04/12 05:47:55;;;;;;;3.03;1.10;;;3.80;99.90;;;;;;4905213;28;20091;-89
2021/04/12 05:50:46;;;;;;;1.55;0.93;;;3.90;99.90;;;;;;4908927;28;20086;-89
2021/04/12 05:53:20;;;;;;;4.97;1.10;;;3.90;99.90;;;;;;4925080;28;20093;-91
2021/04/12 05:56:04;;;;;;;5.35;1.33;;;3.90;99.90;;;;;;4924651;28;20082;-89
2021/04/12 05:58:42;;;;;;;4.40;1.92;;;3.90;99.90;;;;;;4925619;28;20094;-90
2021/04/12 06:01:21;;;;;;;3.95;1.05;;;3.90;99.90;;;;;;4923636;28;20090;-89
2021/04/12 06:03:48;;;;;;;3.08;0.80;;;3.90;99.90;;;;;;4907006;28;20153;-88
2021/04/12 06:07:03;;;;;;;1.25;0.80;;;3.90;99.90;;;;;;4897067;28;20095;-85
2021/04/12 06:09:35;;;;;;;4.18;1.25;;;3.90;99.90;;;;;;4923829;28;20093;-91
2021/04/12 06:12:31;;;;;;;5.32;1.00;;;4.00;99.90;;;;;;4917022;28;20086;-91
2021/04/12 06:15:05;;;;;;;4.43;0.90;;;4.10;99.90;;;;;;4925690;28;20074;-91
2021/04/12 06:17:48;;;;;;;3.45;1.00;;;4.20;99.90;;;;;;4907392;28;20504;-89
2021/04/12 06:20:47;;;;;;;2.42;0.80;;;4.30;99.90;;;;;;4924021;28;20096;-92
2021/04/12 06:24:06;;;;;;;4.00;0.80;;;4.40;99.90;;;;;;4923620;28;20090;-89
2021/04/12 06:26:45;;;;;;;2.17;1.13;;;4.30;99.90;;;;;;4833675;28;20126;-90
2021/04/12 06:29:36;;;;;;;1.92;0.90;;;4.40;99.90;;;;;;4837913;28;20135;-88
2021/04/12 06:32:23;;;;;;;4.25;0.80;;;4.30;99.90;;;;;;4893015;28;20095;-91
2021/04/12 06:35:16;;;;;;;1.63;0.73;;;4.20;99.90;;;;;;4925167;28;20502;-90
2021/04/12 06:38:06;;;;;;;2.90;1.55;;;4.20;99.90;;;;;;4924889;28;20094;-89
2021/04/12 06:41:10;;;;;;;2.10;0.90;;;4.30;99.90;;;;;;4911489;28;20144;-89
2021/04/12 06:44:16;;;;;;;6.63;1.05;;;4.20;99.90;;;;;;4921550;28;20078;-89
2021/04/12 06:47:11;;;;;;;3.47;1.17;;;4.30;99.90;;;;;;4918430;28;20097;-89
2021/04/12 06:50:28;;;;;;;4.43;1.45;;;4.30;99.90;;;;;;4910625;28;20094;-90
2021/04/12 06:53:29;;;;;;;8.32;2.28;;;4.50;99.90;;;;;;4926422;28;20087;-88
2021/04/12 06:56:21;;;;;;;6.20;1.70;;;4.40;99.90;;;;;;4909773;28;20081;-86
2021/04/12 06:59:17;;;;;;;3.97;1.70;;;4.30;99.90;;;;;;4902018;28;20139;-86
2021/04/12 07:02:06;;;;;;;8.43;1.80;;;4.40;99.90;;;;;;4927502;28;20094;-88
2021/04/12 07:05:10;;;;;;;11.35;1.77;;;4.50;99.90;;;;;;4926684;28;20098;-90
2021/04/12 07:08:08;;;;;;;2.65;1.77;;;4.60;99.90;;;;;;4928136;28;20082;-90
2021/04/12 07:11:06;;;;;;;3.67;1.90;;;4.80;99.90;;;;;;4909908;28;20162;-90
2021/04/12 07:13:54;;;;;;;9.07;1.98;;;4.90;99.90;;;;;;4913345;28;20495;-89
2021/04/12 07:16:51;;;;;;;5.55;1.67;;;4.90;99.90;;;;;;4912514;28;20137;-89
2021/04/12 07:19:32;;;;;;;;;;;5.00;99.90;;;;;;4917763;28;20094;-90
2021/04/12 07:22:34;;;;;;;3.95;1.40;;;5.10;99.90;;;;;;4913756;28;20460;-89
2021/04/12 07:25:32;;;;;;;4.20;1.55;;;5.10;99.90;;;;;;4927699;28;20100;-90
2021/04/12 07:28:20;;;;;;;9.05;1.73;;;5.20;99.90;;;;;;4913067;28;20436;-90
2021/04/12 07:31:17;;;;;;;7.32;1.58;;;5.20;99.90;;;;;;4927085;28;20163;-91
2021/04/12 07:34:06;;;;;;;6.38;1.98;;;5.20;99.90;;;;;;4904734;28;20488;-87
2021/04/12 07:37:05;;;;;;;4.57;1.42;;;5.20;99.90;;;;;;4912337;28;20078;-92
2021/04/12 07:40:10;;;;;;;3.97;1.17;;;5.40;99.90;;;;;;4920244;28;20086;-89
2021/04/12 07:43:21;;;;;;;4.88;1.10;;;5.30;99.90;;;;;;4927865;28;20167;-89
2021/04/12 07:46:16;;;;;;;4.00;1.42;;;5.20;99.90;;;;;;4928182;28;20117;-89
2021/04/12 07:49:15;;;;;;;8.48;1.77;;;5.20;99.90;;;;;;4925600;28;20087;-90
2021/04/12 07:52:13;;;;;;;2.90;1.48;;;5.40;99.90;;;;;;4904170;28;20118;-90
2021/04/12 07:55:05;;;;;;;5.82;1.90;;;5.60;99.90;;;;;;4908798;28;20109;-88
2021/04/12 07:58:27;;;;;;;5.32;1.80;;;5.80;99.90;;;;;;4913478;28;20087;-88
2021/04/12 08:01:24;;;;;;;6.00;1.58;;;5.90;99.90;;;;;;4846663;28;20100;-87
2021/04/12 08:04:35;;;;;;;2.95;1.25;;;6.00;99.90;;;;;;4845085;28;20425;-89
2021/04/12 08:07:34;;;;;;;4.93;1.45;;;5.80;99.90;;;;;;4926197;28;20090;-88
2021/04/12 08:10:32;;;;;;;9.18;1.35;;;5.70;99.90;;;;;;4924798;28;20087;-90
2021/04/12 08:13:28;;;;;;;4.40;0.90;;;5.40;99.90;;;;;;4925861;28;20082;-89
2021/04/12 08:16:23;;;;;;;6.88;1.15;;;5.30;99.90;;;;;;4925964;28;20165;-87
2021/04/12 08:19:27;;;;;;;1.90;1.10;;;5.30;99.90;;;;;;4915041;28;20499;-89
2021/04/12 08:22:31;;;;;;;5.85;1.20;;;5.20;99.90;;;;;;4920488;28;20104;-90
2021/04/12 08:25:23;;;;;;;6.32;1.05;;;5.40;99.90;;;;;;4912366;28;20464;-91
2021/04/12 08:28:37;;;;;;;5.55;1.10;;;5.50;99.90;;;;;;4883775;28;20083;-90
2021/04/12 08:31:36;;;;;;;4.63;1.30;;;5.30;99.90;;;;;;4920649;28;20155;-91
2021/04/12 08:34:35;;;;;;;4.32;1.33;;;5.40;99.90;;;;;;4923652;28;20135;-86
2021/04/12 08:37:20;;;;;;;3.08;1.02;;;5.60;99.90;;;;;;4925227;28;20098;-90
2021/04/12 08:40:08;;;;;;;6.15;1.23;;;5.70;99.90;;;;;;4922930;28;20074;-90
2021/04/12 08:43:12;;;;;;;8.05;1.42;;;5.90;99.90;;;;;;4926225;28;20101;-91
2021/04/12 08:45:57;;;;;;;4.93;1.17;;;6.10;99.90;;;;;;4924887;28;20086;-87
2021/04/12 08:48:51;;;;;;;5.43;0.93;;;6.30;99.90;;;;;;4880104;28;20094;-90
2021/04/12 08:51:36;;;;;;;3.53;0.80;;;6.30;99.90;;;;;;4924988;28;20445;-90
2021/04/12 08:54:49;;;;;;;1.98;0.75;;;6.50;99.90;;;;;;4923288;28;20117;-88
2021/04/12 08:57:40;;;;;;;1.25;0.65;;;6.50;99.90;;;;;;4843431;28;20094;-87
2021/04/12 09:00:30;;;;;;;2.85;0.90;;;6.50;99.90;;;;;;4865108;28;20084;-92
2021/04/12 09:03:44;;;;;;;6.60;1.02;;;6.60;99.90;;;;;;4854070;28;20099;-89
2021/04/12 09:07:28;;;;;;;2.65;0.80;;;6.70;99.90;;;;;;4858590;28;20095;-90
2021/04/12 09:10:37;;;;;;;4.40;0.57;;;6.60;99.90;;;;;;4860951;28;20086;-89
2021/04/12 09:13:58;;;;;;;2.55;0.50;;;6.60;99.90;;;;;;4862819;28;20172;-89
2021/04/12 09:17:11;;;;;;;1.08;0.43;;;6.30;99.90;;;;;;4861202;28;20090;-89
2021/04/12 09:20:33;;;;;;;5.20;0.88;;;6.60;99.90;;;;;;4869396;28;20092;-89
2021/04/12 09:30:38;;;;;;;3.75;0.40;;;7.70;99.90;;;;;;4856070;28;20081;-90
2021/04/12 09:34:06;;;;;;;3.65;0.20;;;7.10;99.90;;;;;;4834390;28;20621;-90
2021/04/12 09:44:26;;;;;;;0.35;0.17;;;7.20;99.90;;;;;;4864760;28;20145;-87
2021/04/12 10:39:32;;;;;;;2.60;0.45;;;7.70;99.90;;;;;;4847201;28;20090;-89
2021/04/12 10:42:15;;;;;;;1.30;0.55;;;7.60;99.90;;;;;;4835953;28;20081;-88
2021/04/12 10:45:09;;;;;;;4.97;0.50;;;7.80;99.90;;;;;;4842919;28;20222;-86
2021/04/12 10:48:03;;;;;;;3.60;0.57;;;8.10;99.90;;;;;;4848225;28;20113;-89
2021/04/12 10:51:16;;;;;;;3.63;0.30;;;8.40;99.90;;;;;;4861489;28;20091;-87
2021/04/12 10:54:15;;;;;;;1.63;0.45;;;8.00;99.90;;;;;;4866413;28;20463;-88
2021/04/12 10:56:40;;;;;;;6.55;0.60;;;;;;;;;;4922083;28;20111;-88
2021/04/12 10:59:42;;;;;;;1.90;0.40;;;7.80;99.90;;;;;;4923301;28;20104;-89
2021/04/12 11:02:17;;;;;;;3.50;0.40;;;7.20;99.90;;;;;;4924174;28;20088;-90
2021/04/12 11:04:56;;;;;;;2.90;0.80;;;7.10;99.90;;;;;;4922258;28;20168;-87
2021/04/12 11:07:21;;;;;;;1.88;0.98;;;7.10;99.90;;;;;;4921904;28;20548;-91
2021/04/12 11:09:57;;;;;;;3.70;0.50;;;7.10;99.90;;;;;;4893244;28;20162;-89
2021/04/12 11:12:55;;;;;;;4.50;0.50;;;7.40;99.90;;;;;;4912676;28;20113;-90
2021/04/12 11:15:29;;;;;;;3.80;0.60;;;7.40;99.90;;;;;;4918898;28;20082;-91
2021/04/12 11:18:01;;;;;;;4.32;0.60;;;7.40;99.90;;;;;;4922671;28;20089;-90
2021/04/12 11:20:33;;;;;;;2.88;0.50;;;7.40;99.90;;;;;;4922863;28;20130;-89
2021/04/12 11:22:59;;;;;;;2.45;0.35;;;7.40;99.90;;;;;;4921095;28;20634;-86
2021/04/12 11:25:36;;;;;;;2.25;0.73;;;7.50;99.90;;;;;;4921904;28;20077;-85
2021/04/12 11:28:25;;;;;;;2.22;0.30;;;7.60;99.90;;;;;;4919880;28;20085;-87
2021/04/12 11:30:57;;;;;;;3.47;0.52;;;7.60;99.90;;;;;;4923358;28;20104;-88
2021/04/12 11:33:45;;;;;;;1.17;0.30;;;7.80;99.90;;;;;;4928612;28;20085;-88
2021/04/12 11:36:32;;;;;;;0.98;0.40;;;7.90;99.90;;;;;;4907864;28;20082;-86
2021/04/12 11:39:05;;;;;;;3.60;0.57;;;8.60;99.90;;;;;;4913086;28;20081;-86
2021/04/12 11:41:35;;;;;;;1.55;0.40;;;8.50;99.90;;;;;;4906717;28;20448;-88
2021/04/12 11:44:01;;;;;;;0.88;0.30;;;9.10;99.90;;;;;;4927488;28;20080;-88
2021/04/12 11:46:42;;;;;;;2.95;0.55;;;8.90;99.90;;;;;;4927937;28;20523;-89
2021/04/12 11:49:12;;;;;;;1.85;0.45;;;8.60;99.90;;;;;;4927464;28;20299;-90
2021/04/12 11:51:48;;;;;;;3.10;0.73;;;8.20;99.90;;;;;;4896826;28;20510;-89
2021/04/12 11:54:13;;;;;;;;;;;8.50;99.90;;;;;;4928067;28;20580;-84
2021/04/12 11:56:48;;;;;;;2.65;0.60;;;8.90;99.90;;;;;;4926017;28;19979;-86
2021/04/12 11:59:22;;;;;;;10.10;0.80;;;9.10;99.90;;;;;;4926174;28;20076;-88
2021/04/12 12:01:51;;;;;;;3.60;0.60;;;8.50;99.90;;;;;;4926334;28;20091;-88
2021/04/12 12:04:38;;;;;;;3.95;0.60;;;8.40;99.90;;;;;;4926815;28;20076;-85
2021/04/12 12:07:15;;;;;;;0.43;0.20;;;8.30;99.90;;;;;;4925419;28;20079;-86
2021/04/12 12:09:43;;;;;;;2.75;0.50;;;8.00;99.90;;;;;;4893024;28;20540;-84
2021/04/12 12:12:28;;;;;;;1.40;0.47;;;7.60;99.90;;;;;;4926756;28;20134;-87
2021/04/12 12:15:03;;;;;;;4.20;0.20;;;7.60;99.90;;;;;;4904036;28;20089;-86
2021/04/12 12:17:32;;;;;;;2.90;0.35;;;7.80;99.90;;;;;;4923216;28;20497;-87
2021/04/12 12:20:05;;;;;;;4.53;0.50;;;7.90;99.90;;;;;;4905718;28;20077;-88
2021/04/12 12:22:39;;;;;;;2.60;0.32;;;7.80;99.90;;;;;;4925953;28;20078;-86
2021/04/12 12:25:07;;;;;;;1.23;0.50;;;7.90;99.90;;;;;;4925773;28;20482;-85
2021/04/12 12:27:35;;;;;;;1.33;0.38;;;8.00;99.90;;;;;;4926088;28;20100;-87
2021/04/12 12:30:05;;;;;;;1.92;0.32;;;8.00;99.90;;;;;;4927695;28;20081;-88
2021/04/12 12:32:51;;;;;;;2.88;0.38;;;8.40;99.90;;;;;;4920951;28;20137;-89
2021/04/12 12:35:23;;;;;;;1.35;0.30;;;8.50;99.90;;;;;;4909177;28;20084;-88
2021/04/12 12:38:06;;;;;;;4.43;0.40;;;9.10;99.90;;;;;;4901325;28;20092;-84
2021/04/12 12:40:33;;;;;;;4.28;0.50;;;9.50;99.90;;;;;;4904816;28;20108;-88
2021/04/12 12:43:04;;;;;;;1.00;0.32;;;9.50;99.90;;;;;;4907979;28;20092;-87
2021/04/12 12:45:30;;;;;;;4.90;0.57;;;9.00;99.90;;;;;;4906084;28;20535;-90
2021/04/12 12:47:56;;;;;;;3.40;0.57;;;8.60;99.90;;;;;;4907704;28;20155;-88
2021/04/12 12:50:23;;;;;;;3.72;0.30;;;8.40;99.90;;;;;;4908469;28;20087;-90
2021/04/12 12:52:52;;;;;;;1.55;0.50;;;8.50;99.90;;;;;;4913010;28;20088;-85
2021/04/12 12:55:23;;;;;;;1.65;0.45;;;8.50;99.90;;;;;;4922636;28;20083;-82
2021/04/12 12:57:46;;;;;;;8.93;0.47;;;8.20;99.90;;;;;;4924037;28;20550;-85
2021/04/12 13:00:18;;;;;;;1.45;0.40;;;8.00;99.90;;;;;;4925302;28;20089;-86
2021/04/12 13:02:42;;;;;;;1.40;0.40;;;7.90;99.90;;;;;;4925626;28;20089;-91
2021/04/12 13:05:12;;;;;;;3.30;0.30;;;7.80;99.90;;;;;;4925313;28;20556;-89
2021/04/12 13:07:35;;;;;;;1.27;0.43;;;7.80;99.90;;;;;;4925154;28;20081;-88
2021/04/12 13:10:02;;;;;;;2.08;0.60;;;7.90;99.90;;;;;;4926923;28;20093;-89
2021/04/12 13:12:32;;;;;;;6.47;0.68;;;8.30;99.90;;;;;;4927186;28;20177;-88
2021/04/12 13:15:07;;;;;;;3.15;0.50;;;8.50;99.90;;;;;;4924948;28;20148;-89
2021/04/12 13:17:34;;;;;;;4.88;1.40;;;9.10;99.90;;;;;;4926385;28;20110;-88
2021/04/12 13:20:00;;;;;;;3.53;0.40;;;9.20;99.90;;;;;;4926417;28;20076;-91
2021/04/12 13:22:30;;;;;;;2.63;0.50;;;9.10;99.90;;;;;;4926604;28;20083;-92
2021/04/12 13:24:53;;;;;;;2.22;0.40;;;9.70;99.90;;;;;;4925894;28;20171;-90
2021/04/12 13:27:20;;;;;;;1.05;0.43;;;10.00;99.90;;;;;;4925209;28;20731;-86
2021/04/12 13:29:46;;;;;;;0.98;0.20;;;10.10;99.90;;;;;;4924984;28;20493;-92
2021/04/12 13:32:13;;;;;;;4.20;0.30;;;10.40;99.90;;;;;;4916360;28;20076;-90
2021/04/12 13:34:45;;;;;;;1.58;0.63;;;10.30;99.90;;;;;;4924999;28;20164;-89
2021/04/12 13:37:14;;;;;;;1.10;0.20;;;9.90;99.90;;;;;;4923693;28;20113;-91
2021/04/12 13:39:41;;;;;;;3.67;0.55;;;9.10;99.90;;;;;;4915746;28;20088;-90
2021/04/12 13:42:17;;;;;;;6.03;0.63;;;8.60;99.90;;;;;;4926060;28;20158;-87
2021/04/12 13:44:50;;;;;;;5.57;0.70;;;8.50;99.90;;;;;;4925037;28;20126;-88
2021/04/12 13:47:20;;;;;;;2.83;0.55;;;9.10;99.90;;;;;;4913718;28;20089;-89
2021/04/12 13:49:48;;;;;;;1.15;0.38;;;9.00;99.90;;;;;;4909669;28;20099;-89
2021/04/12 13:52:15;;;;;;;2.20;0.52;;;8.80;99.90;;;;;;4926376;28;20085;-90
2021/04/12 13:54:46;;;;;;;0.98;0.20;;;9.00;99.90;;;;;;4924580;28;20088;-90
2021/04/12 13:57:20;;;;;;;4.63;0.50;;;8.60;99.90;;;;;;4915724;28;20089;-90
2021/04/12 13:59:49;;;;;;;1.02;0.28;;;8.50;99.90;;;;;;4925295;28;20088;-90
2021/04/12 14:02:21;;;;;;;1.05;0.45;;;8.20;99.90;;;;;;4923997;28;20080;-89
2021/04/12 14:04:50;;;;;;;2.67;0.30;;;8.00;99.90;;;;;;4924911;28;20566;-89
2021/04/12 14:07:18;;;;;;;2.72;0.38;;;8.00;99.90;;;;;;4925357;28;20626;-88
2021/04/12 14:09:43;;;;;;;3.33;0.52;;;8.20;99.90;;;;;;4896576;28;20085;-89
2021/04/12 14:12:07;;;;;;;;;;;8.30;99.90;;;;;;4914987;28;20076;-90
2021/04/12 14:14:35;;;;;;;3.20;0.28;;;8.60;99.90;;;;;;4924853;28;19968;-88
2021/04/12 14:17:03;;;;;;;6.43;0.60;;;8.50;99.90;;;;;;4925467;28;20543;-88
2021/04/12 14:19:28;;;;;;;3.13;0.32;;;8.30;99.90;;;;;;4925249;28;20532;-89
2021/04/12 14:22:01;;;;;;;1.52;0.50;;;8.30;99.90;;;;;;4924377;28;20085;-89
2021/04/12 14:24:29;;;;;;;1.38;0.40;;;8.30;99.90;;;;;;4918287;28;20137;-88
2021/04/12 14:26:54;;;;;;;2.55;0.65;;;8.20;99.90;;;;;;4912903;28;20586;-90
2021/04/12 14:29:24;;;;;;;1.23;0.40;;;8.20;99.90;;;;;;4915821;28;20088;-90
2021/04/12 14:31:47;;;;;;;4.45;0.28;;;8.40;99.90;;;;;;4925208;28;20100;-91
2021/04/12 14:34:14;;;;;;;2.03;0.50;;;8.60;99.90;;;;;;4925515;28;20081;-91
2021/04/12 14:36:41;;;;;;;3.00;0.32;;;8.50;99.90;;;;;;4923104;28;20091;-88
2021/04/12 14:39:12;;;;;;;0.47;0.25;;;8.40;99.90;;;;;;4925116;28;20092;-88
2021/04/12 14:41:42;;;;;;;2.78;0.20;;;8.50;99.90;;;;;;4922923;28;20082;-89
2021/04/12 14:44:09;;;;;;;2.45;0.50;;;8.70;99.90;;;;;;4924137;28;20091;-90
2021/04/12 14:46:40;;;;;;;3.88;0.63;;;9.00;99.90;;;;;;4924626;28;20594;-88
2021/04/12 14:49:07;;;;;;;1.20;0.30;;;9.60;99.90;;;;;;4922139;28;20084;-91
2021/04/12 14:51:33;;;;;;;2.55;0.50;;;9.80;99.90;;;;;;4922678;28;20076;-91
2021/04/12 14:54:01;;;;;;;1.23;0.40;;;9.10;99.90;;;;;;4923422;28;20086;-90
2021/04/12 14:56:32;;;;;;;4.22;0.40;;;8.80;99.90;;;;;;4923441;28;20076;-89
2021/04/12 14:58:58;;;;;;;1.30;0.20;;;8.70;99.90;;;;;;4914342;28;20083;-91
2021/04/12 15:01:26;;;;;;;3.22;0.50;;;8.30;99.90;;;;;;4922997;28;20566;-91
2021/04/12 15:03:55;;;;;;;1.88;0.47;;;8.10;99.90;;;;;;4913286;28;20091;-90
2021/04/12 15:06:22;;;;;;;2.67;0.63;;;8.30;99.90;;;;;;4926827;28;20500;-90
2021/04/12 15:08:52;;;;;;;0.80;0.30;;;8.30;99.90;;;;;;4927245;28;20202;-91
2021/04/12 15:11:26;;;;;;;7.13;0.40;;;8.20;99.90;;;;;;4925324;28;20083;-91
2021/04/12 15:13:58;;;;;;;1.35;0.40;;;7.90;99.90;;;;;;4917208;28;20129;-91
2021/04/12 15:16:31;;;;;;;1.83;0.45;;;8.10;99.90;;;;;;4925641;28;20092;-86
2021/04/12 15:19:04;;;;;;;1.50;0.50;;;8.30;99.90;;;;;;4926866;28;20515;-91
2021/04/12 15:21:31;;;;;;;2.25;0.65;;;8.50;99.90;;;;;;4926590;28;20423;-90
2021/04/12 15:24:09;;;;;;;7.88;0.60;;;8.70;99.90;;;;;;4925059;28;20141;-90
2021/04/12 15:26:34;;;;;;;5.47;0.50;;;;;;;;;;4925955;28;20091;-90
2021/04/12 15:29:26;;;;;;;1.75;0.52;;;8.60;99.90;;;;;;4925397;28;20087;-91